createdAt,value
2022-10-15T00:01:07.428Z,14.48
2022-10-15T00:02:09.577Z,13.32
2022-10-15T00:03:12.850Z,13.88
2022-10-15T00:04:14.929Z,14.07
2022-10-15T00:05:18.008Z,13.40
2022-10-15T00:06:21.550Z,14.25
2022-10-15T00:07:24.961Z,14.00
2022-10-15T00:08:27.228Z,14.13
2022-10-15T00:09:31.682Z,14.45
2022-10-15T00:10:34.718Z,14.27
2022-10-15T00:11:37.819Z,14.80
2022-10-15T00:12:40.802Z,14.82
2022-10-15T00:13:45.022Z,14.65
2022-10-15T00:14:47.251Z,14.70
2022-10-15T00:15:50.331Z,15.10
2022-10-15T00:16:52.385Z,14.57
2022-10-15T00:17:55.485Z,15.25
2022-10-15T00:18:59.135Z,16.15
2022-10-15T00:20:02.416Z,14.75
2022-10-15T00:21:07.757Z,14.95
2022-10-15T00:22:10.817Z,15.45
2022-10-15T00:23:12.860Z,15.77
2022-10-15T00:24:16.046Z,16.17
2022-10-15T00:25:19.686Z,15.25
2022-10-15T00:26:24.714Z,15.40
2022-10-15T00:27:26.826Z,15.07
2022-10-15T00:28:33.394Z,15.95
2022-10-15T00:29:37.520Z,16.65
2022-10-15T00:30:39.656Z,15.32
2022-10-15T00:31:42.916Z,15.40
2022-10-15T00:32:45.000Z,16.38
2022-10-15T00:33:50.159Z,16.58
2022-10-15T00:34:52.303Z,16.73
2022-10-15T00:36:00.565Z,16.08
2022-10-15T00:37:04.502Z,17.13
2022-10-15T00:38:07.534Z,16.13
2022-10-15T00:39:10.818Z,16.65
2022-10-15T00:40:15.632Z,16.48
2022-10-15T00:41:22.224Z,16.42
2022-10-15T00:42:25.734Z,17.38
2022-10-15T00:43:42.898Z,17.83
2022-10-15T00:44:55.474Z,18.70
2022-10-15T00:45:57.629Z,19.15
2022-10-15T00:47:05.349Z,18.40
2022-10-15T00:48:09.480Z,18.50
2022-10-15T00:49:18.062Z,18.60
2022-10-15T00:50:24.758Z,18.15
2022-10-15T00:51:32.217Z,18.60
2022-10-15T00:52:43.504Z,20.17
2022-10-15T00:53:46.434Z,20.50
2022-10-15T00:54:54.043Z,19.90
2022-10-15T00:55:56.841Z,20.38
2022-10-15T00:57:02.019Z,19.77
2022-10-15T00:58:07.102Z,19.98
2022-10-15T00:59:12.816Z,19.90
2022-10-15T01:00:16.637Z,20.17
2022-10-15T01:01:19.824Z,20.13
2022-10-15T01:02:22.380Z,21.25
2022-10-15T01:03:26.491Z,21.02
2022-10-15T01:04:30.675Z,20.55
2022-10-15T01:05:35.833Z,20.65
2022-10-15T01:06:39.253Z,21.52
2022-10-15T01:07:42.325Z,22.60
2022-10-15T01:08:45.129Z,21.30
2022-10-15T01:09:48.634Z,20.98
2022-10-15T01:11:07.203Z,21.58
2022-10-15T01:12:20.120Z,21.55
2022-10-15T01:13:29.224Z,21.17
2022-10-15T01:14:39.797Z,21.83
2022-10-15T01:15:48.883Z,21.42
2022-10-15T01:16:56.054Z,21.98
2022-10-15T01:18:04.675Z,22.38
2022-10-15T01:19:24.750Z,22.40
2022-10-15T01:20:49.066Z,22.20
2022-10-15T01:21:58.509Z,21.55
2022-10-15T01:23:22.411Z,21.65
2022-10-15T01:24:46.875Z,22.73
2022-10-15T01:25:56.269Z,23.08
2022-10-15T01:27:16.115Z,22.67
2022-10-15T01:28:38.469Z,22.13
2022-10-15T01:30:20.969Z,22.25
2022-10-15T01:31:38.819Z,22.10
2022-10-15T01:32:48.145Z,22.40
2022-10-15T01:33:58.157Z,23.75
2022-10-15T01:35:09.792Z,23.27
2022-10-15T01:36:20.051Z,24.05
2022-10-15T01:37:26.768Z,22.80
2022-10-15T01:38:40.327Z,23.20
2022-10-15T01:39:47.137Z,23.10
2022-10-15T01:40:55.254Z,23.63
2022-10-15T01:42:03.150Z,24.45
2022-10-15T01:43:12.024Z,24.17
2022-10-15T01:44:48.607Z,22.98
2022-10-15T01:46:17.448Z,23.38
2022-10-15T01:47:42.517Z,24.38
2022-10-15T01:48:45.431Z,23.77
2022-10-15T01:49:50.868Z,23.90
2022-10-15T01:50:57.873Z,23.15
2022-10-15T01:52:06.041Z,25.05
2022-10-15T01:53:09.153Z,23.80
2022-10-15T01:54:18.622Z,22.90
2022-10-15T01:55:22.750Z,23.35
2022-10-15T01:56:29.406Z,24.27
2022-10-15T01:57:33.377Z,24.08
2022-10-15T01:58:39.584Z,23.52
2022-10-15T01:59:43.721Z,23.60
2022-10-15T02:00:47.468Z,25.02
2022-10-15T02:01:51.015Z,24.25
2022-10-15T02:02:54.054Z,24.85
2022-10-15T02:03:56.268Z,24.15
2022-10-15T02:04:59.334Z,24.45
2022-10-15T02:06:05.922Z,24.10
2022-10-15T02:07:14.384Z,26.00
2022-10-15T02:08:28.627Z,26.08
2022-10-15T02:09:43.271Z,24.98
2022-10-15T02:10:54.057Z,24.13
2022-10-15T02:12:06.788Z,23.48
2022-10-15T02:13:13.116Z,25.35
2022-10-15T02:14:23.204Z,24.88
2022-10-15T02:15:32.775Z,25.38
2022-10-15T02:16:42.155Z,25.30
2022-10-15T02:17:52.581Z,26.13
2022-10-15T02:19:02.202Z,25.13
2022-10-15T02:20:10.450Z,24.67
2022-10-15T02:21:17.765Z,26.02
2022-10-15T02:22:26.516Z,24.73
2022-10-15T02:23:46.697Z,25.00
2022-10-15T02:24:55.546Z,24.60
2022-10-15T02:26:00.650Z,25.00
2022-10-15T02:27:04.682Z,25.20
2022-10-15T02:28:11.260Z,25.77
2022-10-15T02:29:19.189Z,26.23
2022-10-15T02:30:21.661Z,26.63
2022-10-15T02:31:26.055Z,25.65
2022-10-15T02:32:29.380Z,25.05
2022-10-15T02:33:35.929Z,25.75
2022-10-15T02:34:39.502Z,26.30
2022-10-15T02:35:44.455Z,25.58
2022-10-15T02:36:47.722Z,25.63
2022-10-15T02:37:54.236Z,26.38
2022-10-15T02:38:58.808Z,25.63
2022-10-15T02:40:01.965Z,24.85
2022-10-15T02:41:07.185Z,27.13
2022-10-15T02:42:10.447Z,25.92
2022-10-15T02:43:15.467Z,26.45
2022-10-15T02:44:18.548Z,27.38
2022-10-15T02:45:20.938Z,26.80
2022-10-15T02:46:24.134Z,26.77
2022-10-15T02:47:26.175Z,26.58
2022-10-15T02:48:29.882Z,26.52
2022-10-15T02:49:33.346Z,27.42
2022-10-15T02:50:36.504Z,26.55
2022-10-15T02:51:38.769Z,27.58
2022-10-15T02:52:41.831Z,26.10
2022-10-15T02:53:43.882Z,26.85
2022-10-15T02:54:46.973Z,26.23
2022-10-15T02:55:49.075Z,27.27
2022-10-15T02:56:52.971Z,26.75
2022-10-15T02:57:56.317Z,27.33
2022-10-15T02:58:59.372Z,26.80
2022-10-15T03:00:01.436Z,26.92
2022-10-15T03:01:04.891Z,26.48
2022-10-15T03:02:06.981Z,25.88
2022-10-15T03:03:10.093Z,26.55
2022-10-15T03:04:12.484Z,25.95
2022-10-15T03:05:17.654Z,25.75
2022-10-15T03:06:20.169Z,25.85
2022-10-15T03:07:24.477Z,26.60
2022-10-15T03:08:26.806Z,25.27
2022-10-15T03:09:29.892Z,26.00
2022-10-15T03:10:31.983Z,26.48
2022-10-15T03:11:36.138Z,26.65
2022-10-15T03:12:38.189Z,26.13
2022-10-15T03:13:42.097Z,26.17
2022-10-15T03:14:44.121Z,26.20
2022-10-15T03:15:47.166Z,26.63
2022-10-15T03:16:50.589Z,25.98
2022-10-15T03:17:53.713Z,25.98
2022-10-15T03:18:55.831Z,27.35
2022-10-15T03:19:59.777Z,26.08
2022-10-15T03:21:03.749Z,25.08
2022-10-15T03:22:07.079Z,25.88
2022-10-15T03:23:18.127Z,24.50
2022-10-15T03:24:21.383Z,24.10
2022-10-15T03:25:23.762Z,24.52
2022-10-15T03:26:35.365Z,24.98
2022-10-15T03:27:37.410Z,24.15
2022-10-15T03:28:49.058Z,23.65
2022-10-15T03:30:05.070Z,24.20
2022-10-15T03:31:09.623Z,23.88
2022-10-15T03:32:11.880Z,23.77
2022-10-15T03:33:15.668Z,24.52
2022-10-15T03:34:18.083Z,22.88
2022-10-15T03:35:23.563Z,23.40
2022-10-15T03:36:28.059Z,23.33
2022-10-15T03:37:30.392Z,23.77
2022-10-15T03:38:33.612Z,23.95
2022-10-15T03:39:39.258Z,23.85
2022-10-15T03:40:46.399Z,23.45
2022-10-15T03:41:56.233Z,24.08
2022-10-15T03:43:06.840Z,23.63
2022-10-15T03:44:11.175Z,23.42
2022-10-15T03:45:19.037Z,24.45
2022-10-15T03:46:24.981Z,23.42
2022-10-15T03:47:28.912Z,24.48
2022-10-15T03:48:32.435Z,23.23
2022-10-15T03:49:35.489Z,24.30
2022-10-15T03:50:37.961Z,23.17
2022-10-15T03:51:42.443Z,23.05
2022-10-15T03:52:48.101Z,23.45
2022-10-15T03:53:50.278Z,23.13
2022-10-15T03:54:53.355Z,23.73
2022-10-15T03:55:56.080Z,24.27
2022-10-15T03:57:00.100Z,23.52
2022-10-15T03:58:07.083Z,22.90
2022-10-15T03:59:11.333Z,23.83
2022-10-15T04:00:14.687Z,23.58
2022-10-15T04:01:19.468Z,23.55
2022-10-15T04:02:21.983Z,23.33
2022-10-15T04:03:25.264Z,24.40
2022-10-15T04:04:28.028Z,23.60
2022-10-15T04:05:31.399Z,24.13
2022-10-15T04:06:41.750Z,23.58
2022-10-15T04:07:49.125Z,24.35
2022-10-15T04:08:54.954Z,24.40
2022-10-15T04:10:00.772Z,23.52
2022-10-15T04:11:09.964Z,24.38
2022-10-15T04:12:13.030Z,24.33
2022-10-15T04:13:15.145Z,24.95
2022-10-15T04:14:20.207Z,25.02
2022-10-15T04:15:22.437Z,25.38
2022-10-15T04:16:30.858Z,25.13
2022-10-15T04:17:32.948Z,25.20
2022-10-15T04:18:36.341Z,23.98
2022-10-15T04:19:38.584Z,24.50
2022-10-15T04:20:42.746Z,24.15
2022-10-15T04:21:51.570Z,23.60
2022-10-15T04:23:06.397Z,24.85
2022-10-15T04:24:09.840Z,24.70
2022-10-15T04:25:16.627Z,25.60
2022-10-15T04:26:18.914Z,25.38
2022-10-15T04:27:22.015Z,26.33
2022-10-15T04:28:24.169Z,25.08
2022-10-15T04:29:27.579Z,24.27
2022-10-15T04:30:29.653Z,25.50
2022-10-15T04:31:37.554Z,25.95
2022-10-15T04:32:39.902Z,26.00
2022-10-15T04:33:42.986Z,26.58
2022-10-15T04:34:46.498Z,25.60
2022-10-15T04:35:59.826Z,25.92
2022-10-15T04:37:18.945Z,26.77
2022-10-15T04:38:22.008Z,27.25
2022-10-15T04:39:36.674Z,28.00
2022-10-15T04:40:39.350Z,27.65
2022-10-15T04:41:42.809Z,27.85
2022-10-15T04:42:48.455Z,28.50
2022-10-15T04:43:52.519Z,28.45
2022-10-15T04:44:54.578Z,28.33
2022-10-15T04:45:59.102Z,28.10
2022-10-15T04:47:03.389Z,29.42
2022-10-15T04:48:13.119Z,28.23
2022-10-15T04:49:16.300Z,28.27
2022-10-15T04:50:18.380Z,28.48
2022-10-15T04:51:39.870Z,28.33
2022-10-15T04:52:52.042Z,28.17
2022-10-15T04:53:56.246Z,28.58
2022-10-15T04:54:58.940Z,27.83
2022-10-15T04:56:03.664Z,28.98
2022-10-15T04:57:06.393Z,28.75
2022-10-15T04:58:10.908Z,28.95
2022-10-15T04:59:13.136Z,29.25
2022-10-15T05:00:36.019Z,28.88
2022-10-15T05:01:56.517Z,28.40
2022-10-15T05:02:59.859Z,28.30
2022-10-15T05:04:14.772Z,27.77
2022-10-15T05:05:16.820Z,27.90
2022-10-15T05:06:28.894Z,28.20
2022-10-15T05:07:37.771Z,28.73
2022-10-15T05:08:43.470Z,28.05
2022-10-15T05:09:54.672Z,29.25
2022-10-15T05:11:00.810Z,29.45
2022-10-15T05:12:03.916Z,28.67
2022-10-15T05:13:06.020Z,29.02
2022-10-15T05:14:11.723Z,29.45
2022-10-15T05:15:13.960Z,28.85
2022-10-15T05:16:19.833Z,28.65
2022-10-15T05:17:22.201Z,29.48
2022-10-15T05:18:25.554Z,29.98
2022-10-15T05:19:27.947Z,29.77
2022-10-15T05:20:31.008Z,30.40
2022-10-15T05:21:35.468Z,30.13
2022-10-15T05:22:40.636Z,29.50
2022-10-15T05:23:45.659Z,30.30
2022-10-15T05:24:58.749Z,30.92
2022-10-15T05:26:06.485Z,30.67
2022-10-15T05:27:08.723Z,29.42
2022-10-15T05:28:12.521Z,30.58
2022-10-15T05:29:14.547Z,30.17
2022-10-15T05:30:17.855Z,30.67
2022-10-15T05:31:27.136Z,28.92
2022-10-15T05:32:38.716Z,30.25
2022-10-15T05:33:45.596Z,30.02
2022-10-15T05:34:48.695Z,30.20
2022-10-15T05:35:51.837Z,31.17
2022-10-15T05:36:57.492Z,29.80
2022-10-15T05:37:59.570Z,29.20
2022-10-15T05:39:07.842Z,29.70
2022-10-15T05:40:18.234Z,30.45
2022-10-15T05:41:36.156Z,29.92
2022-10-15T05:42:38.332Z,29.48
2022-10-15T05:43:42.885Z,30.35
2022-10-15T05:44:57.420Z,31.73
2022-10-15T05:46:00.729Z,31.88
2022-10-15T05:47:02.797Z,31.25
2022-10-15T05:48:06.532Z,32.63
2022-10-15T05:49:09.480Z,30.80
2022-10-15T05:50:23.539Z,31.10
2022-10-15T05:51:29.575Z,31.65
2022-10-15T05:52:38.398Z,29.38
2022-10-15T05:53:56.586Z,30.40
2022-10-15T05:55:00.254Z,28.13
2022-10-15T05:56:03.322Z,29.35
2022-10-15T05:57:06.464Z,29.15
2022-10-15T05:58:09.517Z,30.67
2022-10-15T05:59:11.582Z,29.08
2022-10-15T06:00:15.885Z,28.55
2022-10-15T06:01:26.436Z,30.60
2022-10-15T06:02:29.202Z,29.73
2022-10-15T06:03:32.937Z,30.90
2022-10-15T06:04:35.942Z,31.67
2022-10-15T06:05:39.137Z,31.55
2022-10-15T06:06:41.190Z,31.90
2022-10-15T06:07:44.247Z,31.00
2022-10-15T06:08:47.152Z,33.10
2022-10-15T06:09:50.344Z,32.30
2022-10-15T06:10:55.929Z,32.25
2022-10-15T06:11:58.989Z,31.70
2022-10-15T06:13:01.083Z,32.28
2022-10-15T06:14:04.122Z,32.53
2022-10-15T06:15:07.142Z,33.40
2022-10-15T06:16:10.908Z,33.65
2022-10-15T06:17:13.019Z,33.97
2022-10-15T06:18:18.457Z,33.92
2022-10-15T06:19:20.844Z,33.42
2022-10-15T06:20:23.969Z,33.55
2022-10-15T06:21:26.018Z,33.00
2022-10-15T06:22:31.945Z,34.05
2022-10-15T06:23:35.619Z,33.78
2022-10-15T06:24:37.670Z,34.67
2022-10-15T06:25:43.866Z,35.85
2022-10-15T06:26:47.274Z,35.70
2022-10-15T06:27:50.303Z,35.00
2022-10-15T06:28:52.394Z,33.80
2022-10-15T06:29:55.479Z,34.90
2022-10-15T06:30:58.864Z,33.45
2022-10-15T06:32:02.952Z,35.00
2022-10-15T06:33:05.156Z,35.13
2022-10-15T06:34:08.217Z,34.47
2022-10-15T06:35:10.366Z,33.97
2022-10-15T06:36:14.685Z,35.35
2022-10-15T06:37:16.734Z,35.00
2022-10-15T06:38:19.832Z,35.78
2022-10-15T06:39:21.924Z,35.28
2022-10-15T06:40:25.026Z,35.50
2022-10-15T06:41:27.153Z,34.85
2022-10-15T06:42:31.553Z,35.67
2022-10-15T06:43:35.232Z,35.45
2022-10-15T06:44:38.681Z,36.28
2022-10-15T06:45:42.586Z,35.70
2022-10-15T06:46:52.886Z,34.38
2022-10-15T06:47:55.009Z,33.75
2022-10-15T06:48:58.124Z,35.28
2022-10-15T06:50:00.618Z,34.63
2022-10-15T06:51:04.906Z,34.60
2022-10-15T06:52:07.488Z,35.47
2022-10-15T06:53:10.618Z,33.95
2022-10-15T06:54:12.727Z,33.97
2022-10-15T06:55:15.886Z,34.25
2022-10-15T06:56:18.078Z,34.42
2022-10-15T06:57:21.512Z,35.13
2022-10-15T06:58:25.398Z,33.92
2022-10-15T06:59:28.480Z,33.42
2022-10-15T07:00:30.978Z,32.70
2022-10-15T07:01:37.227Z,34.30
2022-10-15T07:02:43.576Z,32.85
2022-10-15T07:03:48.573Z,33.20
2022-10-15T07:04:51.603Z,32.08
2022-10-15T07:05:56.013Z,32.80
2022-10-15T07:06:59.147Z,32.78
2022-10-15T07:08:03.498Z,31.60
2022-10-15T07:09:06.617Z,31.63
2022-10-15T07:10:09.279Z,33.42
2022-10-15T07:11:14.833Z,32.60
2022-10-15T07:12:16.884Z,33.53
2022-10-15T07:13:19.963Z,33.47
2022-10-15T07:14:23.448Z,32.78
2022-10-15T07:15:26.537Z,32.92
2022-10-15T07:16:29.843Z,31.88
2022-10-15T07:17:35.201Z,35.05
2022-10-15T07:18:38.206Z,35.03
2022-10-15T07:19:41.465Z,33.13
2022-10-15T07:20:43.553Z,32.50
2022-10-15T07:21:46.725Z,32.25
2022-10-15T07:22:49.181Z,32.45
2022-10-15T07:23:52.263Z,33.08
2022-10-15T07:24:54.342Z,32.85
2022-10-15T07:25:58.531Z,31.85
2022-10-15T07:27:05.123Z,32.15
2022-10-15T07:28:20.223Z,32.53
2022-10-15T07:29:23.699Z,32.53
2022-10-15T07:30:28.494Z,33.25
2022-10-15T07:31:31.115Z,33.90
2022-10-15T07:32:34.527Z,33.28
2022-10-15T07:33:36.855Z,32.85
2022-10-15T07:34:39.873Z,31.55
2022-10-15T07:35:41.950Z,31.83
2022-10-15T07:36:45.041Z,31.50
2022-10-15T07:37:50.687Z,30.23
2022-10-15T07:38:53.831Z,31.15
2022-10-15T07:39:55.909Z,30.27
2022-10-15T07:41:00.221Z,30.50
2022-10-15T07:42:02.819Z,29.40
2022-10-15T07:43:05.912Z,29.92
2022-10-15T07:44:08.139Z,30.75
2022-10-15T07:45:13.096Z,29.17
2022-10-15T07:46:16.368Z,29.95
2022-10-15T07:47:18.672Z,30.25
2022-10-15T07:48:21.970Z,29.63
2022-10-15T07:49:24.119Z,30.05
2022-10-15T07:50:29.315Z,30.02
2022-10-15T07:51:36.926Z,29.05
2022-10-15T07:52:38.962Z,28.77
2022-10-15T07:53:43.936Z,28.88
2022-10-15T07:54:46.982Z,29.27
2022-10-15T07:55:51.743Z,29.63
2022-10-15T07:56:54.761Z,28.50
2022-10-15T07:57:57.270Z,27.38
2022-10-15T07:59:00.318Z,27.75
2022-10-15T08:00:02.400Z,29.23
2022-10-15T08:01:17.968Z,28.80
2022-10-15T08:02:21.907Z,27.15
2022-10-15T08:03:24.532Z,26.58
2022-10-15T08:04:27.690Z,27.45
2022-10-15T08:05:30.130Z,28.17
2022-10-15T08:06:33.833Z,26.27
2022-10-15T08:07:36.017Z,26.90
2022-10-15T08:08:43.956Z,26.92
2022-10-15T08:10:49.293Z,26.77
2022-10-15T08:11:52.318Z,26.42
2022-10-15T08:12:55.851Z,25.20
2022-10-15T08:13:59.024Z,26.15
2022-10-15T08:15:01.425Z,25.38
2022-10-15T08:16:04.933Z,24.73
2022-10-15T08:17:09.709Z,25.05
2022-10-15T08:18:11.873Z,25.30
2022-10-15T08:19:17.761Z,25.33
2022-10-15T08:20:20.970Z,24.98
2022-10-15T08:21:24.316Z,27.52
2022-10-15T08:22:26.606Z,27.50
2022-10-15T08:23:32.242Z,25.45
2022-10-15T08:24:34.458Z,26.20
2022-10-15T08:25:37.491Z,24.23
2022-10-15T08:26:39.573Z,24.92
2022-10-15T08:27:42.673Z,25.90
2022-10-15T08:28:46.122Z,26.67
2022-10-15T08:29:48.403Z,26.35
2022-10-15T08:30:51.537Z,24.83
2022-10-15T08:31:53.590Z,26.35
2022-10-15T08:33:01.139Z,24.65
2022-10-15T08:34:03.693Z,24.77
2022-10-15T08:35:08.223Z,24.70
2022-10-15T08:36:10.606Z,25.52
2022-10-15T08:38:19.746Z,24.85
2022-10-15T08:39:23.392Z,25.95
2022-10-15T08:40:25.591Z,25.13
2022-10-15T08:41:35.000Z,24.83
2022-10-15T08:42:41.141Z,23.98
2022-10-15T08:43:47.154Z,25.08
2022-10-15T08:44:54.878Z,24.98
2022-10-15T08:46:02.019Z,26.27
2022-10-15T08:47:08.674Z,26.23
2022-10-15T08:48:16.959Z,25.67
2022-10-15T08:49:28.655Z,25.85
2022-10-15T08:50:40.166Z,25.85
2022-10-15T08:51:48.409Z,23.83
2022-10-15T08:52:55.551Z,24.75
2022-10-15T08:54:02.716Z,24.30
2022-10-15T08:55:06.355Z,24.50
2022-10-15T08:56:17.139Z,23.25
2022-10-15T08:57:30.430Z,23.67
2022-10-15T08:58:46.372Z,22.42
2022-10-15T08:59:56.681Z,21.80
2022-10-15T09:01:05.072Z,22.60
2022-10-15T09:02:17.626Z,22.48
2022-10-15T09:03:33.553Z,25.65
2022-10-15T09:04:47.169Z,21.80
2022-10-15T09:05:57.896Z,21.75
2022-10-15T09:08:20.633Z,21.50
2022-10-15T09:09:30.678Z,22.38
2022-10-15T09:10:40.847Z,21.02
2022-10-15T09:11:55.278Z,21.27
2022-10-15T09:13:03.323Z,21.88
2022-10-15T09:14:11.040Z,21.58
2022-10-15T09:15:17.139Z,19.92
2022-10-15T09:16:23.871Z,20.45
2022-10-15T09:17:29.970Z,20.20
2022-10-15T09:18:36.983Z,21.15
2022-10-15T09:19:39.217Z,20.45
2022-10-15T09:20:44.665Z,19.40
2022-10-15T09:21:48.221Z,19.33
2022-10-15T09:22:52.867Z,19.08
2022-10-15T09:23:59.568Z,19.85
2022-10-15T09:25:14.478Z,20.65
2022-10-15T09:26:27.043Z,20.27
2022-10-15T09:27:32.958Z,19.08
2022-10-15T09:28:44.706Z,20.08
2022-10-15T09:29:56.489Z,19.02
2022-10-15T09:30:59.786Z,18.73
2022-10-15T09:32:10.877Z,20.50
2022-10-15T09:33:23.748Z,20.15
2022-10-15T09:34:34.094Z,20.85
2022-10-15T09:35:43.279Z,20.70
2022-10-15T09:36:51.822Z,19.75
2022-10-15T09:38:05.831Z,20.25
2022-10-15T09:39:32.832Z,18.27
2022-10-15T09:40:44.454Z,19.48
2022-10-15T09:41:58.613Z,19.83
2022-10-15T09:43:02.432Z,19.95
2022-10-15T09:44:11.183Z,19.05
2022-10-15T09:45:17.271Z,20.10
2022-10-15T09:46:19.327Z,20.58
2022-10-15T09:47:25.970Z,18.58
2022-10-15T09:48:41.335Z,19.00
2022-10-15T09:49:45.799Z,18.75
2022-10-15T09:50:57.882Z,19.80
2022-10-15T09:52:07.617Z,18.10
2022-10-15T09:53:22.222Z,19.13
2022-10-15T09:54:38.283Z,18.73
2022-10-15T09:55:47.849Z,19.42
2022-10-15T09:56:54.450Z,19.58
2022-10-15T09:58:02.988Z,18.00
2022-10-15T09:59:09.664Z,18.67
2022-10-15T10:00:14.777Z,18.27
2022-10-15T10:01:19.891Z,17.92
2022-10-15T10:02:25.192Z,18.33
2022-10-15T10:03:29.478Z,18.23
2022-10-15T10:04:34.008Z,17.75
2022-10-15T10:05:39.012Z,18.02
2022-10-15T10:06:48.618Z,17.05
2022-10-15T10:07:50.787Z,17.58
2022-10-15T10:08:56.880Z,17.23
2022-10-15T10:10:04.804Z,17.05
2022-10-15T10:11:11.136Z,17.38
2022-10-15T10:12:20.597Z,16.83
2022-10-15T10:13:27.332Z,16.70
2022-10-15T10:14:32.994Z,15.65
2022-10-15T10:15:38.419Z,16.35
2022-10-15T10:17:21.577Z,15.35
2022-10-15T10:18:26.074Z,16.08
2022-10-15T10:19:29.233Z,15.50
2022-10-15T10:20:35.125Z,16.33
2022-10-15T10:36:53.438Z,12.75
2022-10-15T10:37:55.397Z,13.23
2022-10-15T10:39:03.089Z,13.50
2022-10-15T10:40:19.680Z,12.85
2022-10-15T10:41:22.684Z,13.15
2022-10-15T10:42:33.164Z,13.00
2022-10-15T10:43:41.272Z,12.82
2022-10-15T10:44:46.493Z,13.35
2022-10-15T10:45:58.052Z,12.50
2022-10-15T10:47:12.902Z,12.77
2022-10-15T10:48:21.191Z,11.85
2022-10-15T10:49:32.773Z,12.15
2022-10-15T10:50:40.617Z,11.30
2022-10-15T10:51:50.225Z,11.07
2022-10-15T10:52:53.238Z,10.77
2022-10-15T10:53:58.646Z,10.88
2022-10-15T10:55:05.225Z,10.40
2022-10-15T10:56:10.570Z,9.55
2022-10-15T10:57:19.755Z,10.93
2022-10-15T10:58:27.028Z,9.30
2022-10-15T10:59:35.640Z,9.15
2022-10-15T11:00:40.966Z,11.52
2022-10-15T11:01:44.025Z,10.90
2022-10-15T11:02:47.200Z,9.85
2022-10-15T11:03:51.405Z,9.27
2022-10-15T11:04:53.524Z,8.15
2022-10-15T11:06:07.864Z,7.97
2022-10-15T11:07:18.999Z,6.72
2022-10-15T11:08:31.874Z,7.20
2022-10-15T11:09:55.259Z,7.20
2022-10-15T11:11:07.636Z,6.75
2022-10-15T11:12:31.815Z,7.10
2022-10-15T11:13:50.202Z,6.85
2022-10-15T11:14:58.816Z,7.45
2022-10-15T11:16:05.369Z,6.50
2022-10-15T11:17:17.877Z,7.43
2022-10-15T11:18:34.755Z,6.90
2022-10-15T11:21:17.628Z,6.63
2022-10-15T11:22:39.889Z,6.88
2022-10-15T11:24:04.885Z,6.45
2022-10-15T11:25:22.083Z,6.10
2022-10-15T11:26:51.981Z,6.00
2022-10-15T11:28:24.784Z,6.18
2022-10-15T11:29:36.370Z,5.85
2022-10-15T11:30:48.937Z,6.22
2022-10-15T11:32:14.672Z,5.38
2022-10-15T11:33:36.689Z,5.70
2022-10-15T11:34:53.633Z,5.70
2022-10-15T11:36:11.729Z,5.68
2022-10-15T11:37:29.238Z,6.03
2022-10-15T11:38:40.916Z,5.50
2022-10-15T11:39:55.200Z,5.43
2022-10-15T11:41:16.603Z,5.65
2022-10-15T11:42:24.968Z,5.35
2022-10-15T11:43:45.057Z,4.93
2022-10-15T11:45:18.149Z,5.07
2022-10-15T11:46:28.147Z,4.45
2022-10-15T11:47:40.979Z,4.72
2022-10-15T11:48:55.286Z,4.60
2022-10-15T11:50:14.461Z,4.40
2022-10-15T11:51:27.615Z,4.80
2022-10-15T11:52:48.732Z,4.10
2022-10-15T11:54:21.693Z,4.50
2022-10-15T11:55:30.163Z,3.47
2022-10-15T11:56:38.828Z,3.75
2022-10-15T11:57:44.435Z,3.60
2022-10-15T11:58:51.508Z,3.30
2022-10-15T11:59:58.404Z,3.60
2022-10-15T12:01:06.742Z,3.47
2022-10-15T12:02:15.001Z,3.53
2022-10-15T12:03:21.309Z,3.83
2022-10-15T12:04:32.715Z,3.40
2022-10-15T12:05:40.075Z,3.60
2022-10-15T12:06:48.753Z,2.90
2022-10-15T12:07:50.652Z,3.05
2022-10-15T12:09:00.229Z,3.70
2022-10-15T12:10:14.105Z,3.33
2022-10-15T12:11:28.250Z,4.07
2022-10-15T12:12:38.920Z,4.20
2022-10-15T12:14:52.247Z,4.50
2022-10-15T12:16:03.597Z,4.60
2022-10-15T12:17:16.671Z,4.47
2022-10-15T12:18:27.268Z,4.68
2022-10-15T12:19:37.288Z,4.35
2022-10-15T12:20:41.765Z,4.78
2022-10-15T12:22:00.920Z,4.97
2022-10-15T12:23:04.713Z,5.57
2022-10-15T12:24:47.708Z,4.35
2022-10-15T12:25:51.963Z,4.57
2022-10-15T12:26:54.007Z,4.50
2022-10-15T12:28:01.651Z,4.70
2022-10-15T12:29:07.030Z,4.68
2022-10-15T12:30:27.543Z,5.05
2022-10-15T12:31:49.268Z,4.55
2022-10-15T12:32:52.048Z,4.57
2022-10-15T12:33:56.581Z,4.97
2022-10-15T12:35:00.891Z,4.50
2022-10-15T12:36:09.844Z,5.03
2022-10-15T12:37:18.215Z,4.35
2022-10-15T12:38:26.523Z,4.70
2022-10-15T12:41:05.338Z,4.13
2022-10-15T12:42:21.879Z,4.93
2022-10-15T12:43:25.186Z,4.03
2022-10-15T12:44:30.428Z,4.65
2022-10-15T12:45:40.004Z,4.68
2022-10-15T12:46:46.287Z,3.97
2022-10-15T12:47:49.371Z,4.95
2022-10-15T12:48:56.094Z,4.97
2022-10-15T12:50:02.786Z,4.40
2022-10-15T12:51:39.407Z,4.80
2022-10-15T12:53:02.438Z,4.90
2022-10-15T12:54:33.633Z,4.72
2022-10-15T12:55:39.043Z,4.70
2022-10-15T12:56:42.393Z,4.65
2022-10-15T12:58:00.069Z,4.38
2022-10-15T12:59:02.127Z,5.25
2022-10-15T13:00:29.716Z,4.78
2022-10-15T13:01:52.115Z,4.57
2022-10-15T13:02:55.978Z,4.45
2022-10-15T13:04:00.440Z,4.55
2022-10-15T13:05:04.460Z,4.28
2022-10-15T13:06:35.083Z,4.72
2022-10-15T13:07:40.853Z,4.55
2022-10-15T13:08:46.334Z,4.75
2022-10-15T13:09:49.503Z,4.53
2022-10-15T13:10:54.906Z,5.28
2022-10-15T13:12:01.438Z,5.22
2022-10-15T13:13:05.704Z,5.32
2022-10-15T13:14:22.164Z,4.95
2022-10-15T13:15:26.401Z,5.47
2022-10-15T13:16:30.575Z,5.88
2022-10-15T13:17:32.729Z,6.07
2022-10-15T13:18:36.269Z,5.53
2022-10-15T13:19:40.978Z,5.13
2022-10-15T13:20:47.586Z,4.90
2022-10-15T13:21:51.943Z,5.60
2022-10-15T13:23:01.915Z,5.50
2022-10-15T13:24:12.465Z,6.00
2022-10-15T13:25:16.445Z,5.72
2022-10-15T13:26:22.645Z,5.88
2022-10-15T13:27:29.025Z,5.80
2022-10-15T13:28:33.704Z,5.38
2022-10-15T13:29:36.690Z,5.32
2022-10-15T13:30:48.590Z,5.60
2022-10-15T13:31:53.220Z,5.65
2022-10-15T13:32:56.821Z,5.50
2022-10-15T13:34:14.389Z,5.20
2022-10-15T13:35:22.032Z,5.50
2022-10-15T13:36:26.506Z,4.47
2022-10-15T13:37:33.408Z,4.57
2022-10-15T13:38:38.741Z,4.85
2022-10-15T13:39:42.546Z,4.38
2022-10-15T13:40:48.524Z,4.80
2022-10-15T13:41:51.544Z,4.55
2022-10-15T13:43:02.298Z,4.07
2022-10-15T13:45:17.911Z,4.70
2022-10-15T13:46:20.904Z,4.63
2022-10-15T13:47:27.053Z,4.70
2022-10-15T13:48:31.120Z,4.63
2022-10-15T13:49:34.063Z,5.20
2022-10-15T13:50:36.693Z,4.50
2022-10-15T13:51:41.949Z,4.45
2022-10-15T13:52:48.113Z,5.10
2022-10-15T13:53:51.374Z,5.00
2022-10-15T13:54:53.347Z,5.13
2022-10-15T13:55:58.296Z,5.40
2022-10-15T13:57:02.541Z,5.18
2022-10-15T13:58:17.453Z,5.28
2022-10-15T13:59:21.413Z,4.90
2022-10-15T14:00:27.002Z,5.00
2022-10-15T14:01:31.739Z,4.82
2022-10-15T14:02:33.700Z,4.43
2022-10-15T14:03:39.268Z,5.20
2022-10-15T14:04:41.333Z,5.55
2022-10-15T14:05:44.841Z,5.60
2022-10-15T14:06:56.992Z,5.00
2022-10-15T14:08:00.283Z,6.85
2022-10-15T14:09:15.035Z,8.38
2022-10-15T14:10:17.104Z,7.63
2022-10-15T14:11:20.637Z,7.38
2022-10-15T14:12:23.604Z,8.07
2022-10-15T14:13:28.947Z,7.55
2022-10-15T14:14:34.738Z,8.05
2022-10-15T14:15:46.219Z,8.00
2022-10-15T14:16:49.559Z,7.40
2022-10-15T14:17:52.083Z,7.88
2022-10-15T14:18:58.467Z,7.63
2022-10-15T14:20:25.818Z,7.80
2022-10-15T14:21:29.135Z,7.53
2022-10-15T14:22:31.688Z,8.35
2022-10-15T14:23:34.684Z,8.10
2022-10-15T14:24:40.194Z,7.68
2022-10-15T14:25:42.229Z,7.55
2022-10-15T14:26:46.309Z,8.15
2022-10-15T14:27:50.484Z,7.72
2022-10-15T14:28:56.500Z,7.13
2022-10-15T14:30:01.419Z,7.40
2022-10-15T14:31:05.334Z,8.13
2022-10-15T14:32:21.858Z,7.53
2022-10-15T14:33:41.691Z,7.28
2022-10-15T14:34:43.694Z,8.20
2022-10-15T14:35:46.669Z,7.72
2022-10-15T14:36:48.592Z,8.38
2022-10-15T14:38:01.138Z,8.00
2022-10-15T14:39:28.145Z,8.27
2022-10-15T14:40:30.511Z,8.73
2022-10-15T14:41:34.537Z,8.13
2022-10-15T14:42:39.591Z,8.30
2022-10-15T14:43:42.496Z,8.80
2022-10-15T14:44:48.061Z,8.70
2022-10-15T14:45:58.721Z,8.43
2022-10-15T14:48:10.750Z,8.10
2022-10-15T14:49:19.991Z,9.63
2022-10-15T14:50:26.630Z,9.60
2022-10-15T14:51:29.036Z,10.02
2022-10-15T14:53:37.936Z,9.07
2022-10-15T14:54:43.703Z,9.43
2022-10-15T14:55:50.957Z,10.20
2022-10-15T14:56:55.128Z,9.15